Time;durP1;ratioP1;P1;durP2;ratioP2;P2;SDS_P1;SDS_P2;PMS_P1;PMS_P2;Temp;Humidity;BMP_temperature;BMP_pressure;BME280_temperature;BME280_humidity;BME280_pressure;Samples;Min_cycle;Max_cycle;Signal;HPM_P1;HPM_P2
2022/03/08 00:02:19;;;;;;;16.80;15.05;;;1.60;49.60;;;;;;5099041;28;20622;-57
2022/03/08 00:04:46;;;;;;;18.25;14.73;;;1.60;50.00;;;;;;5098882;28;20254;-57
2022/03/08 00:07:13;;;;;;;19.70;14.63;;;1.60;49.80;;;;;;5097550;28;20196;-57
2022/03/08 00:09:40;;;;;;;20.40;15.13;;;1.60;50.00;;;;;;5098999;28;20673;-57
2022/03/08 00:12:09;;;;;;;20.95;16.40;;;1.50;49.90;;;;;;5098901;28;20196;-57
2022/03/08 00:14:36;;;;;;;18.10;15.38;;;1.60;49.60;;;;;;5098928;28;20222;-57
2022/03/08 00:17:03;;;;;;;19.55;14.73;;;1.60;49.50;;;;;;5098743;28;20659;-57
2022/03/08 00:19:30;;;;;;;18.20;15.30;;;1.60;49.30;;;;;;5098728;28;20290;-57
2022/03/08 00:21:57;;;;;;;16.30;14.20;;;1.70;49.10;;;;;;5097352;28;20242;-57
2022/03/08 00:24:24;;;;;;;16.63;14.88;;;1.60;49.60;;;;;;5098761;28;20291;-57
2022/03/08 00:26:51;;;;;;;21.83;15.60;;;1.60;50.50;;;;;;5098907;28;20196;-57
2022/03/08 00:29:19;;;;;;;18.67;15.45;;;1.60;50.30;;;;;;5098529;28;20214;-57
2022/03/08 00:31:46;;;;;;;20.35;15.70;;;1.40;50.50;;;;;;5098718;28;20258;-57
2022/03/08 00:34:13;;;;;;;19.20;15.02;;;1.40;50.80;;;;;;5098691;28;20214;-57
2022/03/08 00:36:39;;;;;;;16.83;15.02;;;1.40;51.50;;;;;;5097038;28;20719;-57
2022/03/08 00:39:06;;;;;;;20.77;16.02;;;1.40;50.90;;;;;;5098649;28;20676;-57
2022/03/08 00:41:33;;;;;;;17.05;15.15;;;1.40;51.50;;;;;;5098565;28;20231;-57
2022/03/08 00:44:00;;;;;;;18.48;15.13;;;1.40;51.20;;;;;;5097948;28;20214;-57
2022/03/08 00:46:28;;;;;;;16.60;14.90;;;1.30;51.60;;;;;;5095414;28;20673;-57
2022/03/08 00:48:56;;;;;;;18.52;15.07;;;1.20;51.80;;;;;;5095385;28;20222;-57
2022/03/08 00:51:23;;;;;;;19.00;14.95;;;1.20;51.40;;;;;;5093910;28;20204;-57
2022/03/08 00:53:50;;;;;;;19.10;16.02;;;1.20;51.30;;;;;;5095163;28;20200;-57
2022/03/08 00:56:17;;;;;;;20.23;16.27;;;1.20;52.00;;;;;;5095153;28;20658;-57
2022/03/08 00:58:44;;;;;;;18.27;14.50;;;1.10;52.20;;;;;;5095107;28;20196;-57
2022/03/08 01:01:11;;;;;;;17.48;15.30;;;1.20;51.90;;;;;;5094907;28;20235;-57
2022/03/08 01:03:39;;;;;;;20.70;15.88;;;1.10;51.80;;;;;;5094905;28;20327;-57
2022/03/08 01:06:06;;;;;;;19.60;15.45;;;1.10;51.70;;;;;;5093732;28;20255;-57
2022/03/08 01:08:32;;;;;;;19.83;15.45;;;1.10;51.90;;;;;;5094755;28;20239;-57
2022/03/08 01:10:59;;;;;;;20.35;15.73;;;1.10;51.70;;;;;;5094825;28;20661;-57
2022/03/08 01:13:26;;;;;;;20.88;15.35;;;1.10;51.40;;;;;;5094839;28;20641;-57
2022/03/08 01:15:53;;;;;;;19.95;15.02;;;1.10;52.00;;;;;;5094884;28;20235;-57
2022/03/08 01:18:20;;;;;;;18.92;15.10;;;1.10;51.30;;;;;;5094956;28;20234;-58
2022/03/08 01:20:48;;;;;;;18.92;14.55;;;1.00;51.60;;;;;;5093426;28;20880;-58
2022/03/08 01:23:15;;;;;;;16.80;14.35;;;1.00;51.80;;;;;;5094710;28;20231;-58
2022/03/08 01:25:42;;;;;;;16.48;14.25;;;1.00;51.70;;;;;;5094755;28;20689;-58
2022/03/08 01:28:09;;;;;;;16.00;14.32;;;0.90;51.60;;;;;;5094793;28;20208;-58
2022/03/08 01:30:36;;;;;;;17.17;13.93;;;0.90;51.80;;;;;;5094564;28;20300;-58
2022/03/08 01:33:03;;;;;;;18.05;14.32;;;1.00;51.20;;;;;;5094597;28;20592;-58
2022/03/08 01:35:30;;;;;;;18.33;15.15;;;1.00;51.00;;;;;;5094527;28;20210;-58
2022/03/08 01:37:58;;;;;;;19.65;13.75;;;1.10;51.00;;;;;;5093076;28;20208;-58
2022/03/08 01:40:25;;;;;;;18.42;14.75;;;1.10;51.30;;;;;;5094340;28;20285;-58
2022/03/08 01:42:53;;;;;;;15.95;14.10;;;1.10;51.50;;;;;;5094454;28;20242;-58
2022/03/08 01:45:22;;;;;;;18.48;15.15;;;1.00;51.00;;;;;;5094298;28;20210;-58
2022/03/08 01:47:48;;;;;;;20.75;14.93;;;0.90;51.80;;;;;;5094394;28;20291;-58
2022/03/08 01:50:16;;;;;;;20.38;16.60;;;0.90;51.90;;;;;;5094079;28;20299;-58
2022/03/08 01:52:44;;;;;;;20.58;15.88;;;0.90;52.00;;;;;;5092464;28;20207;-58
2022/03/08 01:55:16;;;;;;;20.75;15.15;;;0.90;52.00;;;;;;5094037;28;20551;-58
2022/03/08 01:57:44;;;;;;;19.52;16.20;;;0.90;52.40;;;;;;5093729;28;20622;-58
2022/03/08 02:00:15;;;;;;;17.77;15.65;;;0.90;52.20;;;;;;5094010;28;20214;-58
2022/03/08 02:02:43;;;;;;;19.63;15.65;;;0.80;52.80;;;;;;5094025;28;20204;-58
2022/03/08 02:05:10;;;;;;;18.63;15.43;;;0.80;52.60;;;;;;5093899;28;20236;-58
2022/03/08 02:07:37;;;;;;;16.67;14.85;;;0.70;53.10;;;;;;5092526;28;20204;-58
2022/03/08 02:10:08;;;;;;;18.30;15.88;;;0.70;52.40;;;;;;5093921;28;20210;-58
2022/03/08 02:12:36;;;;;;;16.77;15.00;;;0.80;52.40;;;;;;5093845;28;20286;-58
2022/03/08 02:15:12;;;;;;;16.00;14.15;;;0.70;51.70;;;;;;5093887;28;20561;-58
2022/03/08 02:17:39;;;;;;;18.88;14.73;;;0.70;51.20;;;;;;5093754;28;20562;-58
2022/03/08 02:20:07;;;;;;;21.20;14.95;;;0.80;51.80;;;;;;5093564;28;20595;-58
2022/03/08 02:22:36;;;;;;;17.63;14.98;;;0.80;52.00;;;;;;5091981;28;20224;-58
2022/03/08 02:25:03;;;;;;;21.15;15.82;;;0.90;52.10;;;;;;5093690;28;20294;-58
2022/03/08 02:27:31;;;;;;;17.52;15.40;;;0.80;52.00;;;;;;5093542;28;20298;-58
2022/03/08 02:29:59;;;;;;;23.00;15.07;;;0.80;52.90;;;;;;5093387;28;20222;-57
2022/03/08 02:32:26;;;;;;;24.70;15.27;;;0.80;52.20;;;;;;5093199;28;20224;-58
2022/03/08 02:34:53;;;;;;;18.20;14.82;;;0.80;52.00;;;;;;5093396;28;20238;-58
2022/03/08 02:37:21;;;;;;;20.73;15.93;;;0.90;52.40;;;;;;5091879;28;20593;-58
2022/03/08 02:39:49;;;;;;;18.75;15.13;;;0.90;52.30;;;;;;5093275;28;20600;-58
2022/03/08 02:42:16;;;;;;;18.10;16.15;;;0.80;53.30;;;;;;5093377;28;20578;-58
2022/03/08 02:44:43;;;;;;;19.90;15.90;;;0.70;53.80;;;;;;5093591;28;20295;-58
2022/03/08 02:47:10;;;;;;;17.83;15.80;;;0.60;54.20;;;;;;5093594;28;20295;-58
2022/03/08 02:49:36;;;;;;;20.60;15.30;;;0.50;54.70;;;;;;5093567;28;20206;-58
2022/03/08 02:52:04;;;;;;;16.88;15.05;;;0.40;55.20;;;;;;5092023;28;20286;-58
2022/03/08 02:54:31;;;;;;;19.90;16.05;;;0.40;54.40;;;;;;5093481;28;20290;-57
2022/03/08 02:56:59;;;;;;;19.00;15.73;;;0.30;54.70;;;;;;5093430;28;20242;-58
2022/03/08 02:59:26;;;;;;;20.52;16.42;;;0.30;54.50;;;;;;5093269;28;20714;-58
2022/03/08 03:01:53;;;;;;;19.48;15.63;;;0.40;54.60;;;;;;5093313;28;20231;-58
2022/03/08 03:04:20;;;;;;;16.92;14.77;;;0.40;54.30;;;;;;5093120;28;20238;-58
2022/03/08 03:06:47;;;;;;;18.95;15.23;;;0.40;54.80;;;;;;5091782;28;20210;-58
2022/03/08 03:09:14;;;;;;;21.52;17.02;;;0.40;54.20;;;;;;5092339;28;20200;-58
2022/03/08 03:11:41;;;;;;;21.40;14.27;;;0.30;55.10;;;;;;5093162;28;20202;-58
2022/03/08 03:14:10;;;;;;;17.38;15.40;;;0.40;54.50;;;;;;5093067;28;20204;-58
2022/03/08 03:16:37;;;;;;;16.95;13.38;;;0.50;53.80;;;;;;5093184;28;20303;-58
2022/03/08 03:19:04;;;;;;;15.07;13.40;;;0.40;53.80;;;;;;5093079;28;20204;-58
2022/03/08 03:21:31;;;;;;;15.30;13.70;;;0.50;53.40;;;;;;5091682;28;20685;-58
2022/03/08 03:23:58;;;;;;;15.43;13.68;;;0.60;52.90;;;;;;5092922;28;20206;-58
2022/03/08 03:26:25;;;;;;;15.25;13.75;;;0.60;52.70;;;;;;5093026;28;20195;-58
2022/03/08 03:28:52;;;;;;;14.55;12.75;;;0.60;52.50;;;;;;5092930;28;20299;-58
2022/03/08 03:31:20;;;;;;;15.65;14.00;;;0.60;52.50;;;;;;5092867;28;20235;-58
2022/03/08 03:33:47;;;;;;;16.48;13.50;;;0.70;52.00;;;;;;5092945;28;20316;-58
2022/03/08 03:36:14;;;;;;;16.10;13.32;;;0.70;51.90;;;;;;5091656;28;20210;-58
2022/03/08 03:38:41;;;;;;;15.27;11.70;;;0.70;52.20;;;;;;5092735;28;20200;-58
2022/03/08 03:41:08;;;;;;;14.25;12.88;;;0.70;51.80;;;;;;5092812;28;20228;-58
2022/03/08 03:43:35;;;;;;;16.05;12.27;;;0.70;51.80;;;;;;5092814;28;20253;-58
2022/03/08 03:46:02;;;;;;;17.77;13.77;;;0.70;51.40;;;;;;5092853;28;20208;-58
2022/03/08 03:48:30;;;;;;;16.70;12.30;;;0.70;51.40;;;;;;5092847;28;20207;-58
2022/03/08 03:50:57;;;;;;;16.30;12.80;;;0.70;51.40;;;;;;5091472;28;20295;-58
2022/03/08 03:53:24;;;;;;;13.70;12.40;;;0.70;51.30;;;;;;5092673;28;20607;-58
2022/03/08 03:55:51;;;;;;;14.82;13.38;;;0.80;51.10;;;;;;5092693;28;20204;-58
2022/03/08 03:58:18;;;;;;;14.02;12.10;;;0.80;51.40;;;;;;5092729;28;20279;-58
2022/03/08 04:00:45;;;;;;;15.00;12.05;;;0.80;51.20;;;;;;5092643;28;20246;-58
2022/03/08 04:03:13;;;;;;;13.52;12.15;;;0.80;51.20;;;;;;5092412;28;20239;-58
2022/03/08 04:05:41;;;;;;;13.35;12.10;;;0.80;51.20;;;;;;5092608;28;20702;-58
2022/03/08 04:08:08;;;;;;;14.02;12.63;;;0.80;51.10;;;;;;5091473;28;20228;-58
2022/03/08 04:10:35;;;;;;;17.42;14.30;;;0.80;51.00;;;;;;5092470;28;20231;-58
2022/03/08 04:13:02;;;;;;;11.88;10.68;;;0.70;51.80;;;;;;5092662;28;20214;-58
2022/03/08 04:15:28;;;;;;;11.98;10.65;;;0.70;51.80;;;;;;5092581;28;20200;-58
2022/03/08 04:17:56;;;;;;;14.32;11.65;;;0.80;51.10;;;;;;5092578;28;20235;-58
2022/03/08 04:20:23;;;;;;;14.43;13.02;;;0.70;51.70;;;;;;5095195;28;20199;-58
2022/03/08 04:22:51;;;;;;;14.77;13.40;;;0.70;51.30;;;;;;5094842;28;20232;-58
2022/03/08 04:25:18;;;;;;;13.27;10.75;;;0.70;51.30;;;;;;5096319;28;20290;-57
2022/03/08 04:27:45;;;;;;;14.15;12.88;;;0.70;51.00;;;;;;5096220;28;20239;-57
2022/03/08 04:30:12;;;;;;;13.90;12.63;;;0.70;50.60;;;;;;5096036;28;20311;-57
2022/03/08 04:32:39;;;;;;;12.95;11.60;;;0.70;50.70;;;;;;5096118;28;20200;-57
2022/03/08 04:35:07;;;;;;;12.30;10.82;;;0.70;50.80;;;;;;5096163;28;20196;-57
2022/03/08 04:37:34;;;;;;;14.40;13.07;;;0.80;50.50;;;;;;5094541;28;20554;-57
2022/03/08 04:40:04;;;;;;;12.95;11.63;;;0.80;50.20;;;;;;5096046;28;20236;-57
2022/03/08 04:42:31;;;;;;;12.07;10.90;;;0.80;50.20;;;;;;5095817;28;20293;-57
2022/03/08 04:44:57;;;;;;;14.55;13.05;;;0.80;50.40;;;;;;5095959;28;20246;-57
2022/03/08 04:47:24;;;;;;;13.20;12.00;;;0.60;50.30;;;;;;5095889;28;20278;-57
2022/03/08 04:49:51;;;;;;;13.00;11.68;;;0.60;51.20;;;;;;5095891;28;20299;-57
2022/03/08 04:52:18;;;;;;;13.50;12.30;;;0.60;51.30;;;;;;5094271;28;20291;-57
2022/03/08 04:54:45;;;;;;;11.25;10.10;;;0.50;51.10;;;;;;5095693;28;20203;-58
2022/03/08 04:57:13;;;;;;;12.18;11.02;;;0.60;51.00;;;;;;5095732;28;20208;-57
2022/03/08 04:59:40;;;;;;;13.20;11.85;;;0.40;51.10;;;;;;5095590;28;20468;-57
2022/03/08 05:02:07;;;;;;;11.60;10.40;;;0.40;51.90;;;;;;5095557;28;20227;-57
2022/03/08 05:04:34;;;;;;;12.88;11.77;;;0.30;51.60;;;;;;5095377;28;20323;-57
2022/03/08 05:07:01;;;;;;;13.65;12.25;;;0.40;52.00;;;;;;5094091;28;20239;-57
2022/03/08 05:09:28;;;;;;;12.10;10.88;;;0.40;51.60;;;;;;5095292;28;20279;-57
2022/03/08 05:11:54;;;;;;;12.45;10.23;;;0.50;51.30;;;;;;5095486;28;20659;-58
2022/03/08 05:14:23;;;;;;;13.27;11.88;;;0.50;51.60;;;;;;5095558;28;20670;-57
2022/03/08 05:16:51;;;;;;;12.35;11.35;;;0.50;51.10;;;;;;5095335;28;20291;-57
2022/03/08 05:19:17;;;;;;;13.32;12.05;;;0.50;51.40;;;;;;5095054;28;20208;-57
2022/03/08 05:21:44;;;;;;;13.30;12.02;;;0.50;51.40;;;;;;5093817;28;20336;-57
2022/03/08 05:24:11;;;;;;;13.10;10.32;;;0.50;51.60;;;;;;5095106;28;20203;-57
2022/03/08 05:26:39;;;;;;;11.80;10.70;;;0.50;51.40;;;;;;5095117;28;20210;-57
2022/03/08 05:29:05;;;;;;;11.23;10.13;;;0.60;51.30;;;;;;5095109;28;20231;-57
2022/03/08 05:31:34;;;;;;;13.23;10.80;;;0.50;52.10;;;;;;5094019;28;20311;-57
2022/03/08 05:34:01;;;;;;;12.00;11.00;;;0.50;52.10;;;;;;5094634;28;20692;-57
2022/03/08 05:36:28;;;;;;;13.02;11.73;;;0.60;51.50;;;;;;5093493;28;20294;-57
2022/03/08 05:38:55;;;;;;;11.05;9.77;;;0.50;51.50;;;;;;5094672;28;20572;-57
2022/03/08 05:41:22;;;;;;;10.35;9.02;;;0.40;52.00;;;;;;5094803;28;20727;-57
2022/03/08 05:43:49;;;;;;;13.05;11.82;;;0.40;52.00;;;;;;5094573;28;20228;-57
2022/03/08 05:46:16;;;;;;;12.23;11.02;;;0.30;52.10;;;;;;5094643;28;20693;-58
2022/03/08 05:48:46;;;;;;;10.82;9.80;;;0.40;51.80;;;;;;5094422;28;20203;-57
2022/03/08 05:51:13;;;;;;;12.02;10.77;;;0.50;51.60;;;;;;5093167;28;20829;-57
2022/03/08 05:53:40;;;;;;;11.45;10.32;;;0.60;51.60;;;;;;5094374;28;20220;-57
2022/03/08 05:56:09;;;;;;;12.88;11.65;;;0.50;51.80;;;;;;5094421;28;20231;-57
2022/03/08 05:58:35;;;;;;;12.13;9.35;;;0.50;52.50;;;;;;5094565;28;20236;-59
2022/03/08 06:01:02;;;;;;;11.95;10.85;;;0.60;51.70;;;;;;5094206;28;20208;-57
2022/03/08 06:03:29;;;;;;;12.90;11.70;;;0.60;52.10;;;;;;5094212;28;20271;-57
2022/03/08 06:05:57;;;;;;;12.00;10.75;;;0.60;52.00;;;;;;5093101;28;20291;-57
2022/03/08 06:08:24;;;;;;;10.73;9.10;;;0.60;52.20;;;;;;5094129;28;20654;-57
2022/03/08 06:10:51;;;;;;;13.05;11.68;;;0.70;52.20;;;;;;5094317;28;20249;-57
2022/03/08 06:13:18;;;;;;;11.57;10.00;;;0.80;52.10;;;;;;5094260;28;20286;-57
2022/03/08 06:15:45;;;;;;;11.90;10.65;;;0.80;51.90;;;;;;5093986;28;20206;-57
2022/03/08 06:18:12;;;;;;;12.15;10.60;;;0.80;52.00;;;;;;5094088;28;20639;-58
2022/03/08 06:20:38;;;;;;;13.68;12.48;;;0.80;51.90;;;;;;5093941;28;20228;-57
2022/03/08 06:23:07;;;;;;;14.50;9.90;;;0.80;52.10;;;;;;5092521;28;20257;-57
2022/03/08 06:25:34;;;;;;;12.70;11.43;;;0.80;52.10;;;;;;5094004;28;20287;-57
2022/03/08 06:28:01;;;;;;;12.23;10.65;;;0.90;51.90;;;;;;5093913;28;20290;-57
2022/03/08 06:30:28;;;;;;;17.83;12.93;;;1.00;51.90;;;;;;5093532;28;20228;-57
2022/03/08 06:32:54;;;;;;;13.77;10.80;;;0.90;52.00;;;;;;5093708;28;20204;-57
2022/03/08 06:35:21;;;;;;;12.30;11.00;;;0.90;52.20;;;;;;5093722;28;20239;-57
2022/03/08 06:37:48;;;;;;;12.40;10.85;;;0.90;52.20;;;;;;5092342;28;20291;-57
2022/03/08 06:40:17;;;;;;;15.20;12.30;;;0.90;52.20;;;;;;5093405;28;20294;-57
2022/03/08 06:42:44;;;;;;;13.32;12.15;;;0.90;52.50;;;;;;5093179;28;20285;-57
2022/03/08 06:45:11;;;;;;;11.93;10.82;;;0.90;52.20;;;;;;5093456;28;20206;-57
2022/03/08 06:47:39;;;;;;;13.40;12.18;;;0.90;52.70;;;;;;5093566;28;20638;-57
2022/03/08 06:50:11;;;;;;;13.40;10.45;;;0.90;51.90;;;;;;5093501;28;20204;-61
2022/03/08 06:52:38;;;;;;;12.07;10.40;;;0.80;51.90;;;;;;5092096;28;20325;-57
2022/03/08 06:55:06;;;;;;;13.20;12.00;;;0.70;52.30;;;;;;5093331;28;20232;-57
2022/03/08 06:57:34;;;;;;;13.77;10.73;;;0.70;52.60;;;;;;5093279;28;20624;-57
2022/03/08 07:00:01;;;;;;;13.15;11.95;;;0.80;52.70;;;;;;5093101;28;20286;-57
2022/03/08 07:02:28;;;;;;;12.63;11.32;;;0.80;52.70;;;;;;5093141;28;20266;-57
2022/03/08 07:04:55;;;;;;;13.80;12.40;;;1.00;52.30;;;;;;5093016;28;20714;-57
2022/03/08 07:07:22;;;;;;;13.85;12.60;;;1.10;52.30;;;;;;5091834;28;20630;-57
2022/03/08 07:09:49;;;;;;;12.80;11.57;;;1.10;52.50;;;;;;5093013;28;20631;-58
2022/03/08 07:12:15;;;;;;;13.75;12.55;;;1.20;52.10;;;;;;5093116;28;20663;-57
2022/03/08 07:14:44;;;;;;;12.90;11.70;;;1.30;52.30;;;;;;5093058;28;20227;-57
2022/03/08 07:17:10;;;;;;;13.45;12.23;;;1.20;53.00;;;;;;5093015;28;20236;-57
2022/03/08 07:19:37;;;;;;;13.73;12.43;;;1.10;53.80;;;;;;5093017;28;20286;-57
2022/03/08 07:22:05;;;;;;;12.65;11.35;;;1.20;53.50;;;;;;5091651;28;20206;-57
2022/03/08 07:24:31;;;;;;;13.25;12.15;;;1.20;53.60;;;;;;5092630;28;20204;-57
2022/03/08 07:26:58;;;;;;;13.27;12.07;;;1.20;54.40;;;;;;5092880;28;20236;-57
2022/03/08 07:29:25;;;;;;;13.50;11.90;;;1.30;54.10;;;;;;5092636;28;20269;-57
2022/03/08 07:31:54;;;;;;;15.05;13.55;;;1.40;53.90;;;;;;5092759;28;20645;-57
2022/03/08 07:34:21;;;;;;;12.23;11.02;;;1.50;53.90;;;;;;5092787;28;20723;-57
2022/03/08 07:36:48;;;;;;;15.20;13.70;;;1.60;53.90;;;;;;5091710;28;20200;-57
2022/03/08 07:39:14;;;;;;;14.02;11.48;;;1.70;54.00;;;;;;5092494;28;20223;-56
2022/03/08 07:41:41;;;;;;;12.50;11.40;;;1.80;53.50;;;;;;5092684;28;20673;-56
2022/03/08 07:44:08;;;;;;;16.45;12.40;;;1.80;53.60;;;;;;5092578;28;20318;-57
2022/03/08 07:46:35;;;;;;;14.30;12.98;;;1.90;53.50;;;;;;5092724;28;20286;-57
2022/03/08 07:49:03;;;;;;;12.20;11.02;;;1.90;54.00;;;;;;5092698;28;20617;-57
2022/03/08 07:51:30;;;;;;;14.48;12.82;;;1.70;53.60;;;;;;5091334;28;20203;-56
2022/03/08 07:53:59;;;;;;;14.13;11.77;;;1.80;54.50;;;;;;5092765;28;20235;-57
2022/03/08 07:56:26;;;;;;;14.00;12.65;;;1.90;54.20;;;;;;5096697;28;20283;-57
2022/03/08 07:58:54;;;;;;;14.88;10.23;;;2.00;54.70;;;;;;5096717;28;20292;-57
2022/03/08 08:01:20;;;;;;;15.30;13.85;;;2.10;54.50;;;;;;5096638;28;20204;-57
2022/03/08 08:03:47;;;;;;;15.18;11.95;;;2.00;54.60;;;;;;5096338;28;20231;-56
2022/03/08 08:06:15;;;;;;;14.95;13.70;;;2.10;54.40;;;;;;5094998;28;20210;-57
2022/03/08 08:08:42;;;;;;;12.35;10.95;;;2.20;54.40;;;;;;5096409;28;20238;-56
2022/03/08 08:11:09;;;;;;;13.27;11.95;;;2.40;53.60;;;;;;5096438;28;20211;-57
2022/03/08 08:13:36;;;;;;;15.15;13.65;;;2.50;53.20;;;;;;5096386;28;20299;-57
2022/03/08 08:16:03;;;;;;;15.05;13.55;;;2.50;53.40;;;;;;5096320;28;20295;-57
2022/03/08 08:18:30;;;;;;;14.93;13.40;;;2.60;53.50;;;;;;5096252;28;20204;-56
2022/03/08 08:20:57;;;;;;;12.32;10.90;;;2.70;53.50;;;;;;5094918;28;20218;-57
2022/03/08 08:23:25;;;;;;;15.75;14.15;;;2.70;52.70;;;;;;5096091;28;20228;-57
2022/03/08 08:25:52;;;;;;;11.77;10.50;;;2.70;52.70;;;;;;5096230;28;20239;-57
2022/03/08 08:28:19;;;;;;;15.20;13.65;;;2.90;52.80;;;;;;5096133;28;20235;-57
2022/03/08 08:30:46;;;;;;;15.25;13.85;;;2.90;52.50;;;;;;5096176;28;20239;-57
2022/03/08 08:33:13;;;;;;;15.13;13.55;;;2.90;52.80;;;;;;5096063;28;20208;-57
2022/03/08 08:35:40;;;;;;;14.57;13.15;;;2.80;52.80;;;;;;5096002;28;20615;-56
2022/03/08 08:38:07;;;;;;;14.27;11.57;;;2.80;53.10;;;;;;5094411;28;20565;-57
2022/03/08 08:40:35;;;;;;;14.68;12.55;;;2.70;53.10;;;;;;5095868;28;20204;-56
2022/03/08 08:43:02;;;;;;;15.93;14.30;;;2.70;53.80;;;;;;5095683;28;20232;-56
2022/03/08 08:45:30;;;;;;;14.50;13.10;;;2.80;53.20;;;;;;5095806;28;20291;-57
2022/03/08 08:47:56;;;;;;;14.82;13.32;;;2.80;52.60;;;;;;5095707;28;20196;-57
2022/03/08 08:50:24;;;;;;;14.18;12.75;;;3.00;53.10;;;;;;5095869;28;20200;-57
2022/03/08 08:52:50;;;;;;;15.30;13.90;;;3.10;52.90;;;;;;5094238;28;20212;-57
2022/03/08 08:55:17;;;;;;;14.30;13.00;;;3.30;52.50;;;;;;5095746;28;20196;-57
2022/03/08 08:57:45;;;;;;;13.27;12.10;;;3.40;51.60;;;;;;5095622;28;20196;-57
2022/03/08 09:00:13;;;;;;;11.88;10.68;;;3.40;51.60;;;;;;5095536;28;20291;-57
2022/03/08 09:02:43;;;;;;;15.60;14.20;;;3.60;51.80;;;;;;5095300;28;20243;-57
2022/03/08 09:05:11;;;;;;;15.40;14.07;;;3.50;52.10;;;;;;5094860;28;20243;-57
2022/03/08 09:07:39;;;;;;;15.00;13.50;;;3.50;51.70;;;;;;5093575;28;20242;-57
2022/03/08 09:10:08;;;;;;;13.90;12.60;;;3.60;52.00;;;;;;5095195;28;20200;-57
2022/03/08 09:12:35;;;;;;;14.45;13.07;;;3.80;51.50;;;;;;5095305;28;20287;-57
2022/03/08 09:15:04;;;;;;;15.55;14.00;;;3.90;51.70;;;;;;5095171;28;20204;-57
2022/03/08 09:17:31;;;;;;;14.02;12.82;;;4.10;50.50;;;;;;5095149;28;20204;-57
2022/03/08 09:19:58;;;;;;;13.68;12.48;;;4.10;50.20;;;;;;5094891;28;20204;-59
2022/03/08 09:22:25;;;;;;;14.27;12.98;;;4.20;49.70;;;;;;5093841;28;20302;-57
2022/03/08 09:24:52;;;;;;;13.77;12.45;;;4.30;49.20;;;;;;5094866;28;20318;-57
2022/03/08 09:27:19;;;;;;;11.48;10.48;;;4.40;49.10;;;;;;5095042;28;20290;-57
2022/03/08 09:29:45;;;;;;;12.50;11.40;;;4.40;48.70;;;;;;5094717;28;20235;-57
2022/03/08 09:32:14;;;;;;;14.45;13.05;;;4.50;48.20;;;;;;5095035;28;20371;-57
2022/03/08 09:34:41;;;;;;;13.43;12.32;;;4.50;48.30;;;;;;5094871;28;20286;-57
2022/03/08 09:37:08;;;;;;;13.18;12.07;;;4.50;48.40;;;;;;5093488;28;20201;-58
2022/03/08 09:39:37;;;;;;;12.95;11.65;;;4.60;48.50;;;;;;5094606;28;20242;-57
2022/03/08 09:42:05;;;;;;;14.75;13.40;;;4.80;48.30;;;;;;5094667;28;20200;-57
2022/03/08 09:44:32;;;;;;;14.48;13.27;;;4.90;47.70;;;;;;5094644;28;20274;-57
2022/03/08 09:46:59;;;;;;;13.52;12.38;;;4.90;47.70;;;;;;5094622;28;20208;-57
2022/03/08 09:49:28;;;;;;;13.60;12.25;;;5.00;47.40;;;;;;5094562;28;20669;-57
2022/03/08 09:51:55;;;;;;;15.10;13.70;;;5.10;46.70;;;;;;5093169;28;20206;-58
2022/03/08 09:54:22;;;;;;;13.00;11.80;;;5.10;47.30;;;;;;5094204;28;20295;-58
2022/03/08 09:56:49;;;;;;;14.27;12.85;;;5.30;46.90;;;;;;5094273;28;20204;-58
2022/03/08 09:59:17;;;;;;;13.52;12.15;;;5.30;45.70;;;;;;5094376;28;20654;-57
2022/03/08 10:01:45;;;;;;;13.15;12.15;;;5.40;46.30;;;;;;5094170;28;20210;-58
2022/03/08 10:04:16;;;;;;;13.65;11.40;;;5.50;46.00;;;;;;5093940;28;20235;-58
2022/03/08 10:06:47;;;;;;;14.85;13.65;;;5.60;45.90;;;;;;5092881;28;20294;-58
2022/03/08 10:09:15;;;;;;;13.10;12.02;;;5.70;45.60;;;;;;5094017;28;20204;-57
2022/03/08 10:11:43;;;;;;;14.30;13.00;;;5.70;45.00;;;;;;5094093;28;20212;-58
2022/03/08 10:14:13;;;;;;;12.80;11.80;;;5.70;44.60;;;;;;5094132;28;20239;-58
2022/03/08 10:16:47;;;;;;;14.75;13.55;;;5.80;44.70;;;;;;5093740;28;20295;-57
2022/03/08 10:19:14;;;;;;;13.02;11.40;;;5.90;44.30;;;;;;5094073;28;20207;-57
2022/03/08 10:21:44;;;;;;;12.98;11.98;;;6.10;44.40;;;;;;5092658;28;20283;-57
2022/03/08 10:24:16;;;;;;;12.90;11.93;;;6.30;44.70;;;;;;5093773;28;20238;-57
2022/03/08 10:26:46;;;;;;;14.13;12.93;;;6.50;42.80;;;;;;5093947;28;20601;-57
2022/03/08 10:29:14;;;;;;;13.20;12.00;;;6.50;41.90;;;;;;5093640;28;20228;-57
2022/03/08 10:31:40;;;;;;;13.73;12.43;;;6.50;43.10;;;;;;5093675;28;20211;-57
2022/03/08 10:34:15;;;;;;;13.25;12.15;;;6.60;41.90;;;;;;5093757;28;20230;-57
2022/03/08 10:36:59;;;;;;;13.85;12.80;;;6.60;42.10;;;;;;5092212;28;20290;-57
2022/03/08 10:39:26;;;;;;;12.48;11.45;;;6.60;40.90;;;;;;5093451;28;20204;-57
2022/03/08 10:41:56;;;;;;;13.25;12.23;;;6.60;40.90;;;;;;5093717;28;20204;-57
2022/03/08 10:44:38;;;;;;;13.20;12.10;;;6.60;40.80;;;;;;5093551;28;20735;-57
2022/03/08 10:47:09;;;;;;;10.95;9.95;;;6.70;39.90;;;;;;5093463;28;20629;-57
2022/03/08 10:49:37;;;;;;;14.40;13.27;;;6.80;40.30;;;;;;5093450;28;20196;-57
2022/03/08 10:52:06;;;;;;;12.80;11.77;;;7.00;40.30;;;;;;5092062;28;20211;-57
2022/03/08 10:54:34;;;;;;;14.43;13.25;;;7.10;40.60;;;;;;5093359;28;20612;-57
2022/03/08 10:57:02;;;;;;;13.80;12.70;;;7.20;40.40;;;;;;5093482;28;20226;-57
2022/03/08 10:59:29;;;;;;;13.25;12.05;;;7.30;39.50;;;;;;5093111;28;20681;-57
2022/03/08 11:01:56;;;;;;;13.75;12.75;;;7.40;38.00;;;;;;5093394;28;20295;-57
2022/03/08 11:04:25;;;;;;;13.15;12.05;;;7.50;37.80;;;;;;5092992;28;20729;-57
2022/03/08 11:06:53;;;;;;;14.05;12.95;;;7.60;37.90;;;;;;5091967;28;20203;-57
2022/03/08 11:09:22;;;;;;;11.48;10.52;;;7.70;38.10;;;;;;5093169;28;20299;-57
2022/03/08 11:11:50;;;;;;;13.45;12.35;;;7.80;38.00;;;;;;5093069;28;20200;-57
2022/03/08 11:14:17;;;;;;;12.25;11.32;;;8.00;37.50;;;;;;5093101;28;20249;-57
2022/03/08 11:16:50;;;;;;;13.85;12.80;;;8.10;37.60;;;;;;5093118;28;20324;-57
2022/03/08 11:19:18;;;;;;;13.65;12.65;;;8.30;36.90;;;;;;5093008;28;20203;-57
2022/03/08 11:21:46;;;;;;;11.95;10.77;;;8.50;35.80;;;;;;5091593;28;20214;-57
2022/03/08 11:24:14;;;;;;;13.40;12.40;;;8.70;36.20;;;;;;5092670;28;20234;-57
2022/03/08 11:26:43;;;;;;;13.10;12.30;;;9.40;35.00;;;;;;5092751;28;20655;-59
2022/03/08 11:29:12;;;;;;;12.02;10.88;;;11.20;33.70;;;;;;5092011;28;20258;-60
2022/03/08 11:31:41;;;;;;;11.95;11.05;;;13.30;31.10;;;;;;5092982;28;20203;-60
2022/03/08 11:34:17;;;;;;;12.48;11.68;;;15.20;29.90;;;;;;5092786;28;20303;-60
2022/03/08 11:36:52;;;;;;;12.82;11.95;;;16.80;24.60;;;;;;5091512;28;20265;-60
2022/03/08 11:39:25;;;;;;;12.68;11.50;;;18.00;25.90;;;;;;5092603;28;20285;-61
2022/03/08 11:41:55;;;;;;;13.93;12.83;;;19.40;23.50;;;;;;5092887;28;20291;-60
2022/03/08 11:44:23;;;;;;;15.10;13.80;;;20.50;24.90;;;;;;5092685;28;20584;-61
2022/03/08 11:47:11;;;;;;;14.47;13.37;;;21.70;20.80;;;;;;5092741;28;20520;-60
2022/03/08 11:49:47;;;;;;;14.33;13.33;;;22.60;21.50;;;;;;5092532;28;20948;-58
2022/03/08 11:52:19;;;;;;;13.90;12.90;;;23.60;21.80;;;;;;5091272;28;20452;-58
2022/03/08 11:54:57;;;;;;;15.73;14.63;;;23.70;20.60;;;;;;5092527;28;20545;-57
2022/03/08 11:58:07;;;;;;;14.90;13.80;;;24.20;19.70;;;;;;5092709;28;20445;-60
2022/03/08 12:00:42;;;;;;;14.33;13.27;;;24.20;19.00;;;;;;5092595;28;20551;-59
2022/03/08 12:03:16;;;;;;;14.33;13.30;;;24.40;19.10;;;;;;5092463;28;20524;-58
2022/03/08 12:05:56;;;;;;;14.57;13.57;;;24.20;17.90;;;;;;5092557;28;20569;-58
2022/03/08 12:08:43;;;;;;;13.40;12.53;;;24.30;18.10;;;;;;5092473;28;20449;-60
2022/03/08 12:11:35;;;;;;;15.47;14.37;;;24.10;18.40;;;;;;5092463;28;20870;-60
2022/03/08 12:14:09;;;;;;;14.77;13.67;;;23.60;16.90;;;;;;5092560;28;20453;-60
2022/03/08 12:16:39;;;;;;;15.50;14.20;;;22.60;17.30;;;;;;5092395;28;20548;-60
2022/03/08 12:19:06;;;;;;;15.80;14.63;;;20.60;18.10;;;;;;5092435;28;20446;-59
2022/03/08 12:21:36;;;;;;;13.90;12.80;;;18.70;19.50;;;;;;5091144;28;20473;-59
2022/03/08 12:24:05;;;;;;;15.17;13.90;;;17.90;21.00;;;;;;5092386;28;20489;-60
2022/03/08 12:26:36;;;;;;;15.30;14.20;;;17.20;21.90;;;;;;5092453;28;20448;-59
2022/03/08 12:29:15;;;;;;;15.30;14.20;;;17.00;21.90;;;;;;5092256;28;20453;-59
2022/03/08 12:32:27;;;;;;;15.73;14.32;;;16.20;22.70;;;;;;5092367;28;20450;-61
2022/03/08 12:34:58;;;;;;;15.52;14.23;;;15.10;24.60;;;;;;5055889;28;20299;-59
2022/03/08 12:37:26;;;;;;;15.10;13.85;;;14.30;25.10;;;;;;5090814;28;20196;-59
2022/03/08 12:39:56;;;;;;;13.07;11.77;;;14.00;26.00;;;;;;5092533;28;20212;-59
2022/03/08 12:42:30;;;;;;;15.95;14.55;;;13.70;28.10;;;;;;5095872;28;20815;-59